Terminal Aerodrome Forecast
Issued by NWS Quad Cities IA IL

Home | Current Version | Previous Version | Graphics & Text | Print | Product List | Glossary On
Versions: 1 2 3 4 5 6 7 8 9 10 11 12 13 14 15 16 17
000
FTUS43 KDVN 161200 CCA
TAFDBQ
TAF COR
KDBQ 161201Z 1612/1712 15022G30KT P6SM BKN100
     FM161700 18025G35KT P6SM BKN150
     FM170000 14013G23KT P6SM BKN080
     FM170600 23012KT P6SM -RA BKN050
     FM171000 27010KT P6SM BKN250=

USA.gov is the U.S. government's official web portal to all federal, state and local government web resources and services.